createdAt,value
2023-03-18T00:04:35.186Z,8.45
2023-03-18T00:09:38.270Z,5.97
2023-03-18T00:14:41.195Z,8.07
2023-03-18T00:19:44.010Z,9.82
2023-03-18T00:24:46.764Z,11.70
2023-03-18T00:29:49.974Z,6.50
2023-03-18T00:34:53.504Z,7.32
2023-03-18T00:39:58.025Z,10.73
2023-03-18T00:45:01.387Z,6.82
2023-03-18T00:50:05.392Z,7.07
2023-03-18T00:55:08.774Z,7.50
2023-03-18T01:00:12.013Z,10.73
2023-03-18T01:05:15.094Z,7.03
2023-03-18T01:10:17.738Z,8.75
2023-03-18T01:15:22.242Z,9.90
2023-03-18T01:20:25.820Z,11.50
2023-03-18T01:25:30.614Z,9.77
2023-03-18T01:30:35.829Z,8.82
2023-03-18T01:35:41.546Z,8.63
2023-03-18T01:45:54.746Z,10.95
2023-03-18T01:51:05.766Z,8.18
2023-03-18T01:56:09.499Z,10.55
2023-03-18T02:01:21.418Z,9.77
2023-03-18T02:06:25.759Z,8.50
2023-03-18T02:11:43.637Z,5.90
2023-03-18T02:16:55.377Z,10.05
2023-03-18T02:22:10.094Z,7.78
2023-03-18T02:27:20.339Z,17.42
2023-03-18T02:32:29.103Z,9.38
2023-03-18T02:37:31.924Z,10.70
2023-03-18T02:42:35.609Z,10.63
2023-03-18T02:47:41.764Z,9.40
2023-03-18T02:52:44.643Z,9.68
2023-03-18T02:57:47.715Z,9.68
2023-03-18T03:02:51.178Z,8.10
2023-03-18T03:07:54.222Z,9.50
2023-03-18T03:12:58.003Z,10.13
2023-03-18T03:18:00.801Z,12.75
2023-03-18T03:23:07.835Z,8.38
2023-03-18T03:28:12.438Z,9.73
2023-03-18T03:33:16.036Z,12.80
2023-03-18T03:38:18.861Z,11.68
2023-03-18T03:43:21.724Z,9.35
2023-03-18T03:48:24.558Z,8.70
2023-03-18T03:53:27.278Z,12.38
2023-03-18T03:58:30.147Z,8.10
2023-03-18T04:03:32.987Z,7.90
2023-03-18T04:08:36.669Z,7.28
2023-03-18T04:13:39.486Z,11.18
2023-03-18T04:18:42.287Z,8.98
2023-03-18T04:23:45.324Z,9.95
2023-03-18T04:28:48.184Z,7.55
2023-03-18T04:33:52.213Z,9.87
2023-03-18T04:38:55.662Z,10.40
2023-03-18T04:43:59.769Z,9.45
2023-03-18T04:49:12.329Z,9.07
2023-03-18T04:54:16.202Z,8.35
2023-03-18T04:59:19.450Z,9.02
2023-03-18T05:04:24.226Z,12.88
2023-03-18T05:09:28.831Z,6.15
2023-03-18T05:14:32.200Z,6.70
2023-03-18T05:19:36.071Z,8.27
2023-03-18T05:24:47.287Z,11.27
2023-03-18T05:29:50.569Z,6.03
2023-03-18T05:34:58.837Z,7.85
2023-03-18T05:40:04.649Z,5.63
2023-03-18T05:45:08.195Z,7.70
2023-03-18T05:50:31.798Z,7.50
2023-03-18T05:55:36.162Z,7.78
2023-03-18T06:00:39.293Z,7.10
2023-03-18T06:05:42.513Z,8.30
2023-03-18T06:10:45.532Z,9.65
2023-03-18T06:15:49.288Z,5.35
2023-03-18T06:20:51.986Z,7.43
2023-03-18T06:25:54.712Z,6.03
2023-03-18T06:31:04.392Z,5.80
2023-03-18T06:36:08.560Z,7.03
2023-03-18T06:41:12.110Z,4.95
2023-03-18T06:46:24.385Z,6.03
2023-03-18T06:51:27.394Z,5.97
2023-03-18T06:56:30.985Z,6.00
2023-03-18T07:01:49.703Z,5.20
2023-03-18T07:06:55.239Z,4.93
2023-03-18T07:12:01.748Z,5.03
2023-03-18T07:17:04.564Z,3.42
2023-03-18T07:22:08.455Z,5.97
2023-03-18T07:27:13.752Z,3.15
2023-03-18T07:32:16.581Z,4.43
2023-03-18T07:37:19.357Z,4.05
2023-03-18T07:42:22.458Z,5.93
2023-03-18T07:47:26.215Z,2.65
2023-03-18T07:52:29.746Z,2.97
2023-03-18T07:57:32.798Z,5.65
2023-03-18T08:02:36.534Z,5.78
2023-03-18T08:07:39.624Z,4.43
2023-03-18T08:12:52.476Z,5.85
2023-03-18T08:17:56.332Z,3.35
2023-03-18T08:22:58.970Z,5.68
2023-03-18T08:28:01.708Z,3.83
2023-03-18T08:33:04.617Z,5.10
2023-03-18T08:38:07.553Z,2.58
2023-03-18T08:43:10.566Z,5.00
2023-03-18T08:48:13.629Z,4.38
2023-03-18T08:53:17.091Z,7.00
2023-03-18T08:58:19.898Z,4.68
2023-03-18T09:03:22.882Z,4.43
2023-03-18T09:08:26.032Z,4.05
2023-03-18T09:13:28.813Z,2.92
2023-03-18T09:18:32.970Z,8.23
2023-03-18T09:23:35.691Z,3.22
2023-03-18T09:28:38.410Z,4.53
2023-03-18T09:33:42.315Z,4.35
2023-03-18T09:38:45.120Z,3.00
2023-03-18T09:43:59.356Z,3.05
2023-03-18T09:49:23.977Z,3.40
2023-03-18T09:54:32.663Z,6.20
2023-03-18T09:59:39.967Z,3.67
2023-03-18T10:04:46.976Z,5.22
2023-03-18T10:09:59.845Z,5.25
2023-03-18T10:15:28.161Z,7.05
2023-03-18T10:20:36.951Z,4.63
2023-03-18T10:25:43.363Z,5.65
2023-03-18T10:31:07.582Z,4.72
2023-03-18T10:36:17.244Z,3.03
2023-03-18T10:41:29.784Z,3.90
2023-03-18T10:46:34.320Z,3.28
2023-03-18T10:52:00.007Z,6.60
2023-03-18T10:57:02.917Z,3.67
2023-03-18T11:02:14.467Z,4.15
2023-03-18T11:07:20.458Z,8.50
2023-03-18T11:12:30.177Z,6.07
2023-03-18T11:17:35.694Z,6.10
2023-03-18T11:27:48.552Z,6.28
2023-03-18T11:32:59.415Z,4.30
2023-03-18T11:38:07.271Z,5.18
2023-03-18T11:43:23.294Z,3.97
2023-03-18T11:48:37.225Z,5.80
2023-03-18T11:53:51.600Z,4.55
2023-03-18T11:59:13.214Z,4.70
2023-03-18T12:04:49.525Z,5.78
2023-03-18T12:10:26.599Z,6.82
2023-03-18T12:15:55.348Z,5.80
2023-03-18T12:21:08.095Z,4.75
2023-03-18T12:26:26.137Z,3.17
2023-03-18T12:31:44.169Z,5.43
2023-03-18T12:37:15.808Z,6.00
2023-03-18T12:42:27.482Z,6.20
2023-03-18T12:47:45.210Z,6.85
2023-03-18T12:53:19.067Z,5.85
2023-03-18T12:58:29.352Z,6.87
2023-03-18T13:03:40.692Z,4.30
2023-03-18T13:08:54.562Z,6.38
2023-03-18T13:14:03.296Z,3.38
2023-03-18T13:19:08.696Z,4.95
2023-03-18T13:24:25.831Z,4.18
2023-03-18T13:29:47.849Z,4.97
2023-03-18T13:35:05.231Z,3.72
2023-03-18T13:40:33.059Z,4.45
2023-03-18T13:45:40.754Z,3.65
2023-03-18T13:50:47.959Z,6.72
2023-03-18T13:56:02.463Z,3.80
2023-03-18T14:01:29.731Z,5.32
2023-03-18T14:06:35.647Z,3.20
2023-03-18T14:11:45.510Z,5.93
2023-03-18T14:16:52.759Z,6.60
2023-03-18T14:22:09.259Z,4.78
2023-03-18T14:27:18.600Z,6.28
2023-03-18T14:32:38.438Z,9.93
2023-03-18T14:38:02.941Z,8.05
2023-03-18T14:43:35.223Z,4.93
2023-03-18T14:48:37.946Z,8.02
2023-03-18T14:53:47.539Z,4.95
2023-03-18T14:58:55.641Z,5.45
2023-03-18T15:03:58.472Z,4.25
2023-03-18T15:09:02.595Z,4.40
2023-03-18T15:14:18.763Z,5.15
2023-03-18T15:19:22.782Z,4.32
2023-03-18T15:24:27.104Z,7.20
2023-03-18T15:29:33.893Z,7.20
2023-03-18T15:34:39.061Z,3.80
2023-03-18T15:39:42.083Z,3.72
2023-03-18T15:44:46.592Z,3.90
2023-03-18T15:49:56.216Z,3.20
2023-03-18T15:54:58.910Z,2.85
2023-03-18T16:00:02.572Z,3.50
2023-03-18T16:05:20.239Z,3.90
2023-03-18T16:10:26.405Z,3.42
2023-03-18T16:15:30.033Z,3.58
2023-03-18T16:20:33.616Z,3.92
2023-03-18T16:25:36.541Z,6.28
2023-03-18T16:30:41.131Z,5.65
2023-03-18T16:35:44.325Z,5.93
2023-03-18T16:40:47.353Z,5.43
2023-03-18T16:45:51.514Z,5.32
2023-03-18T16:50:56.797Z,3.17
2023-03-18T16:56:02.641Z,3.60
2023-03-18T17:01:08.592Z,4.40
2023-03-18T17:06:11.631Z,4.25
2023-03-18T17:11:18.628Z,4.30
2023-03-18T17:16:21.820Z,6.55
2023-03-18T17:21:28.754Z,5.47
2023-03-18T17:26:31.512Z,5.75
2023-03-18T17:31:35.518Z,5.28
2023-03-18T17:36:38.261Z,8.65
2023-03-18T17:41:41.531Z,5.78
2023-03-18T17:46:44.452Z,8.20
2023-03-18T17:51:49.185Z,7.78
2023-03-18T17:56:53.185Z,7.47
2023-03-18T18:01:55.914Z,4.70
2023-03-18T18:06:59.651Z,8.35
2023-03-18T18:12:02.903Z,6.45
2023-03-18T18:17:14.139Z,7.45
2023-03-18T18:22:22.401Z,7.50
2023-03-18T18:27:25.051Z,9.27
2023-03-18T18:32:27.787Z,6.90
2023-03-18T18:37:30.490Z,7.80
2023-03-18T18:42:33.960Z,7.60
2023-03-18T18:47:37.805Z,7.72
2023-03-18T18:52:40.556Z,8.15
2023-03-18T18:57:43.441Z,9.18
2023-03-18T19:02:48.723Z,8.00
2023-03-18T19:07:51.860Z,15.25
2023-03-18T19:12:54.619Z,9.65
2023-03-18T19:17:57.373Z,8.05
2023-03-18T19:23:00.203Z,11.20
2023-03-18T19:28:02.911Z,9.27
2023-03-18T19:33:14.533Z,10.02
2023-03-18T19:38:20.823Z,10.93
2023-03-18T19:43:24.622Z,10.27
2023-03-18T19:48:29.229Z,10.05
2023-03-18T19:53:32.060Z,9.90
2023-03-18T19:58:34.869Z,10.63
2023-03-18T20:03:37.615Z,7.93
2023-03-18T20:08:40.743Z,6.43
2023-03-18T20:13:44.273Z,8.60
2023-03-18T20:18:47.294Z,8.77
2023-03-18T20:23:51.267Z,7.28
2023-03-18T20:28:56.418Z,6.10
2023-03-18T20:33:59.128Z,5.55
2023-03-18T20:39:01.894Z,7.72
2023-03-18T20:44:05.038Z,8.18
2023-03-18T20:49:07.827Z,6.32
2023-03-18T20:54:25.856Z,6.10
2023-03-18T20:59:28.590Z,9.38
2023-03-18T21:04:31.654Z,5.70
2023-03-18T21:09:34.537Z,8.07
2023-03-18T21:14:37.659Z,6.70
2023-03-18T21:19:40.871Z,5.03
2023-03-18T21:24:43.701Z,5.40
2023-03-18T21:29:48.639Z,5.55
2023-03-18T21:34:52.574Z,6.38
2023-03-18T21:39:55.349Z,6.85
2023-03-18T21:44:58.089Z,7.22
2023-03-18T21:50:01.193Z,6.10
2023-03-18T21:55:05.707Z,5.93
2023-03-18T22:00:09.528Z,6.82
2023-03-18T22:05:24.966Z,5.00
2023-03-18T22:10:27.885Z,4.68
2023-03-18T22:15:39.152Z,5.72
2023-03-18T22:20:42.951Z,6.18
2023-03-18T22:25:47.921Z,4.88
2023-03-18T22:30:56.175Z,6.57
2023-03-18T22:35:59.430Z,6.25
2023-03-18T22:41:02.148Z,6.32
2023-03-18T22:46:08.092Z,7.95
2023-03-18T22:51:25.713Z,7.72
2023-03-18T22:56:28.537Z,5.53
2023-03-18T23:01:32.069Z,7.70
2023-03-18T23:06:34.862Z,8.05
2023-03-18T23:11:37.644Z,6.50
2023-03-18T23:16:40.383Z,7.68
2023-03-18T23:21:43.188Z,6.82
2023-03-18T23:26:45.957Z,6.70
2023-03-18T23:31:48.758Z,8.93
2023-03-18T23:36:51.591Z,11.20
2023-03-18T23:41:54.348Z,11.07
2023-03-18T23:46:57.057Z,8.65
2023-03-18T23:52:05.031Z,8.25
2023-03-18T23:57:09.360Z,8.48
